createdAt,value
2022-12-19T00:02:21.754Z,30.30
2022-12-19T00:04:52.772Z,31.02
2022-12-19T00:07:25.214Z,34.35
2022-12-19T00:09:58.792Z,34.30
2022-12-19T00:12:30.148Z,32.08
2022-12-19T00:15:01.964Z,33.58
2022-12-19T00:17:33.632Z,33.67
2022-12-19T00:20:08.457Z,35.28
2022-12-19T00:22:41.029Z,31.90
2022-12-19T00:25:14.793Z,30.65
2022-12-19T00:31:34.491Z,28.58
2022-12-19T00:34:43.660Z,29.77
2022-12-19T00:38:06.821Z,29.45
2022-12-19T00:40:54.813Z,33.87
2022-12-19T00:43:44.271Z,27.58
2022-12-19T00:51:00.707Z,28.33
2022-12-19T00:57:59.963Z,27.65
2022-12-19T01:02:01.149Z,31.48
2022-12-19T01:05:34.375Z,32.00
2022-12-19T01:08:57.779Z,29.98
2022-12-19T01:15:51.817Z,29.92
2022-12-19T01:19:08.177Z,25.88
2022-12-19T01:22:39.507Z,25.85
2022-12-19T01:25:40.114Z,21.80
2022-12-19T01:29:23.030Z,22.50
2022-12-19T01:32:39.645Z,28.70
2022-12-19T01:36:02.933Z,28.30
2022-12-19T01:39:15.301Z,32.13
2022-12-19T01:44:05.499Z,29.02
2022-12-19T01:51:10.066Z,33.58
2022-12-19T01:54:07.761Z,30.10
2022-12-19T01:56:46.490Z,25.35
2022-12-19T01:59:31.625Z,31.52
2022-12-19T02:02:18.272Z,36.67
2022-12-19T02:05:13.853Z,31.33
2022-12-19T02:08:04.193Z,30.88
2022-12-19T02:10:55.995Z,29.08
2022-12-19T02:13:36.671Z,30.88
2022-12-19T02:16:28.993Z,26.20
2022-12-19T02:19:30.520Z,24.65
2022-12-19T02:22:19.860Z,28.10
2022-12-19T02:25:35.236Z,32.97
2022-12-19T02:28:44.666Z,26.58
2022-12-19T02:31:39.853Z,27.08
2022-12-19T02:34:19.634Z,27.13
2022-12-19T02:37:05.853Z,27.33
2022-12-19T02:39:45.053Z,23.92
2022-12-19T02:42:27.598Z,21.65
2022-12-19T02:45:10.854Z,23.33
2022-12-19T02:47:51.873Z,24.02
2022-12-19T02:50:50.385Z,24.23
2022-12-19T02:53:34.911Z,22.38
2022-12-19T02:56:32.978Z,22.27
2022-12-19T02:59:45.786Z,24.73
2022-12-19T03:02:35.429Z,24.05
2022-12-19T03:05:21.120Z,22.42
2022-12-19T03:08:05.807Z,20.02
2022-12-19T03:11:04.821Z,21.05
2022-12-19T03:16:42.145Z,27.10
2022-12-19T03:19:39.063Z,28.95
2022-12-19T03:22:22.932Z,22.38
2022-12-19T03:24:54.471Z,19.85
2022-12-19T03:27:41.468Z,18.77
2022-12-19T03:30:17.634Z,20.90
2022-12-19T03:33:03.394Z,21.83
2022-12-19T03:35:47.435Z,19.88
2022-12-19T03:38:34.278Z,27.80
2022-12-19T03:41:14.224Z,24.15
2022-12-19T03:43:50.532Z,22.55
2022-12-19T03:46:30.444Z,22.92
2022-12-19T03:49:21.825Z,21.52
2022-12-19T03:52:16.742Z,20.15
2022-12-19T03:55:04.498Z,22.90
2022-12-19T03:57:57.439Z,19.17
2022-12-19T04:00:41.591Z,19.83
2022-12-19T04:03:26.588Z,20.13
2022-12-19T04:06:06.266Z,24.85
2022-12-19T04:08:44.287Z,31.65
2022-12-19T04:11:26.710Z,24.70
2022-12-19T04:14:18.463Z,23.98
2022-12-19T04:17:00.622Z,33.28
2022-12-19T04:19:44.400Z,19.92
2022-12-19T04:22:30.642Z,25.30
2022-12-19T04:25:06.639Z,21.85
2022-12-19T04:27:50.906Z,17.95
2022-12-19T04:30:38.730Z,23.48
2022-12-19T04:33:12.706Z,22.90
2022-12-19T04:35:48.295Z,20.60
2022-12-19T04:38:24.595Z,21.58
2022-12-19T04:40:55.759Z,25.13
2022-12-19T04:43:35.407Z,36.40
2022-12-19T04:46:12.194Z,25.48
2022-12-19T04:48:51.770Z,21.73
2022-12-19T04:51:38.984Z,20.83
2022-12-19T04:54:24.040Z,24.98
2022-12-19T04:57:00.169Z,39.72
2022-12-19T04:59:36.820Z,28.05
2022-12-19T05:02:17.009Z,25.48
2022-12-19T05:04:58.853Z,27.60
2022-12-19T05:07:37.092Z,25.02
2022-12-19T05:10:14.998Z,48.30
2022-12-19T05:12:48.461Z,30.83
2022-12-19T05:15:23.319Z,25.23
2022-12-19T05:18:09.773Z,31.40
2022-12-19T05:20:43.630Z,28.50
2022-12-19T05:23:22.284Z,41.95
2022-12-19T05:25:59.667Z,31.35
2022-12-19T05:28:43.717Z,26.98
2022-12-19T05:31:25.258Z,26.88
2022-12-19T05:34:05.132Z,30.83
2022-12-19T05:36:50.997Z,27.88
2022-12-19T05:39:28.620Z,29.40
2022-12-19T05:42:12.546Z,25.75
2022-12-19T05:44:48.523Z,29.85
2022-12-19T05:47:26.085Z,29.25
2022-12-19T05:50:08.660Z,30.02
2022-12-19T05:52:49.512Z,29.35
2022-12-19T05:55:23.847Z,33.78
2022-12-19T05:58:02.312Z,34.38
2022-12-19T06:00:54.025Z,25.75
2022-12-19T06:03:41.770Z,26.70
2022-12-19T06:06:24.929Z,33.13
2022-12-19T06:09:04.863Z,31.25
2022-12-19T06:12:17.399Z,33.08
2022-12-19T06:15:18.448Z,31.25
2022-12-19T06:18:21.122Z,29.02
2022-12-19T06:21:33.599Z,31.88
2022-12-19T06:24:33.784Z,39.30
2022-12-19T06:27:32.667Z,50.95
2022-12-19T06:30:17.367Z,71.80
2022-12-19T06:32:58.142Z,56.08
2022-12-19T06:35:52.054Z,72.55
2022-12-19T06:38:48.545Z,42.38
2022-12-19T06:42:23.165Z,53.15
2022-12-19T06:45:32.265Z,35.75
2022-12-19T06:49:14.827Z,53.65
2022-12-19T06:57:02.107Z,30.02
2022-12-19T06:59:45.759Z,28.35
2022-12-19T07:07:13.418Z,27.63
2022-12-19T07:18:09.835Z,85.90
2022-12-19T07:21:32.587Z,60.70
2022-12-19T07:28:40.395Z,27.35
2022-12-19T07:35:57.648Z,33.15
2022-12-19T07:38:37.799Z,23.17
2022-12-19T07:41:38.635Z,27.55
2022-12-19T07:44:48.877Z,28.00
2022-12-19T07:48:25.965Z,34.15
2022-12-19T07:51:48.244Z,36.63
2022-12-19T07:55:21.746Z,28.65
2022-12-19T08:00:08.084Z,31.80
2022-12-19T08:01:57.828Z,45.70
2022-12-19T08:04:52.516Z,30.10
2022-12-19T08:07:56.406Z,37.42
2022-12-19T08:10:58.874Z,39.08
2022-12-19T08:13:58.100Z,37.03
2022-12-19T08:26:55.815Z,35.97
2022-12-19T08:30:15.901Z,40.08
2022-12-19T08:33:30.508Z,26.58
2022-12-19T08:36:33.556Z,29.88
2022-12-19T08:39:30.596Z,30.90
2022-12-19T08:43:35.008Z,34.67
2022-12-19T08:47:32.183Z,30.17
2022-12-19T08:51:31.918Z,31.65
2022-12-19T08:59:01.038Z,32.42
2022-12-19T09:02:15.590Z,34.90
2022-12-19T09:06:05.128Z,32.75
2022-12-19T09:08:35.850Z,33.47
2022-12-19T09:11:47.462Z,34.22
2022-12-19T09:15:29.689Z,37.80
2022-12-19T09:18:51.162Z,35.38
2022-12-19T09:22:42.870Z,33.17
2022-12-19T09:25:32.248Z,34.00
2022-12-19T09:28:53.443Z,37.28
2022-12-19T09:32:28.983Z,36.97
2022-12-19T09:36:23.887Z,32.47
2022-12-19T09:40:09.105Z,35.80
2022-12-19T09:43:43.505Z,35.08
2022-12-19T09:47:16.165Z,30.70
2022-12-19T09:55:42.313Z,31.23
2022-12-19T10:08:07.688Z,32.33
2022-12-19T12:49:06.410Z,29.92
2022-12-19T12:51:53.012Z,38.72
2022-12-19T12:54:45.663Z,42.78
2022-12-19T13:57:27.603Z,30.13
2022-12-19T14:00:04.839Z,27.02
2022-12-19T14:12:18.288Z,32.70
2022-12-19T14:54:04.574Z,43.03
2022-12-19T14:54:16.334Z,34.20
2022-12-19T15:34:35.433Z,35.92
2022-12-19T15:40:10.888Z,56.30
2022-12-19T15:43:02.564Z,60.00
2022-12-19T15:45:46.393Z,38.07
2022-12-19T15:48:28.811Z,33.75
2022-12-19T15:51:06.714Z,33.13
2022-12-19T15:53:51.108Z,39.92
2022-12-19T15:56:52.774Z,53.38
2022-12-19T15:59:38.026Z,64.78
2022-12-19T16:02:56.438Z,51.70
2022-12-19T16:05:30.428Z,50.58
2022-12-19T16:08:15.542Z,48.90
2022-12-19T16:11:01.089Z,39.67
2022-12-19T16:13:36.343Z,41.33
2022-12-19T16:16:15.291Z,56.42
2022-12-19T16:19:06.616Z,63.25
2022-12-19T16:21:41.749Z,54.50
2022-12-19T16:24:32.988Z,47.83
2022-12-19T16:28:59.582Z,46.10
2022-12-19T16:34:34.256Z,40.63
2022-12-19T16:37:14.043Z,32.75
2022-12-19T16:39:54.361Z,32.17
2022-12-19T16:48:57.104Z,37.20
2022-12-19T16:51:36.902Z,43.53
2022-12-19T16:54:18.507Z,36.38
2022-12-19T16:57:01.085Z,41.30
2022-12-19T16:59:40.513Z,45.28
2022-12-19T17:02:56.486Z,45.83
2022-12-19T17:05:35.755Z,41.20
2022-12-19T17:08:24.904Z,43.75
2022-12-19T17:11:01.309Z,39.22
2022-12-19T17:13:41.407Z,36.53
2022-12-19T17:16:24.496Z,43.25
2022-12-19T17:19:23.270Z,42.75
2022-12-19T17:22:10.097Z,53.03
2022-12-19T17:24:55.883Z,48.72
2022-12-19T17:27:36.426Z,62.05
2022-12-19T17:30:16.858Z,50.40
2022-12-19T17:33:13.957Z,44.03
2022-12-19T17:39:19.957Z,46.40
2022-12-19T17:41:57.532Z,91.05
2022-12-19T17:44:38.166Z,60.92
2022-12-19T17:47:22.953Z,56.72
2022-12-19T17:50:30.443Z,39.38
2022-12-19T17:54:08.764Z,45.33
2022-12-19T17:56:07.749Z,55.97
2022-12-19T17:58:58.901Z,38.80
2022-12-19T18:01:58.726Z,32.78
2022-12-19T18:04:40.143Z,37.38
2022-12-19T18:07:25.780Z,37.67
2022-12-19T18:10:13.079Z,39.58
2022-12-19T18:13:08.881Z,36.85
2022-12-19T18:15:46.453Z,37.13
2022-12-19T18:18:38.956Z,36.05
2022-12-19T18:21:25.637Z,31.73
2022-12-19T18:24:08.912Z,32.17
2022-12-19T18:27:16.906Z,33.85
2022-12-19T18:30:02.087Z,51.08
2022-12-19T18:32:47.027Z,39.85
2022-12-19T18:35:32.932Z,44.08
2022-12-19T18:38:53.780Z,57.22
2022-12-19T18:41:55.626Z,45.92
2022-12-19T18:44:59.197Z,77.32
2022-12-19T18:47:51.700Z,56.33
2022-12-19T18:50:51.960Z,37.13
2022-12-19T18:53:43.999Z,39.53
2022-12-19T18:56:16.661Z,40.95
2022-12-19T18:59:10.577Z,48.90
2022-12-19T19:01:59.365Z,43.28
2022-12-19T19:04:52.768Z,57.50
2022-12-19T19:07:55.909Z,69.60
2022-12-19T19:10:44.584Z,46.38
2022-12-19T19:13:37.892Z,58.00
2022-12-19T19:19:37.848Z,43.38
2022-12-19T19:22:22.509Z,49.35
2022-12-19T19:25:19.161Z,47.20
2022-12-19T19:28:07.383Z,42.72
2022-12-19T19:31:27.911Z,42.80
2022-12-19T19:34:08.304Z,40.95
2022-12-19T19:37:05.874Z,46.70
2022-12-19T19:39:52.098Z,40.92
2022-12-19T19:42:47.337Z,53.83
2022-12-19T19:46:27.086Z,51.55
2022-12-19T19:49:37.020Z,48.28
2022-12-19T19:53:00.105Z,69.53
2022-12-19T19:56:02.594Z,57.15
2022-12-19T19:58:49.976Z,56.88
2022-12-19T20:06:07.982Z,66.00
2022-12-19T20:08:50.571Z,45.15
2022-12-19T20:11:40.604Z,55.75
2022-12-19T20:14:16.561Z,44.20
2022-12-19T20:17:11.955Z,42.55
2022-12-19T20:19:55.291Z,37.05
2022-12-19T20:22:36.765Z,36.20
2022-12-19T20:25:14.541Z,44.72
2022-12-19T20:27:52.242Z,45.60
2022-12-19T20:30:43.845Z,35.55
2022-12-19T20:33:30.476Z,31.73
2022-12-19T20:36:19.068Z,41.75
2022-12-19T20:38:56.165Z,35.65
2022-12-19T20:41:58.719Z,38.03
2022-12-19T20:44:51.946Z,33.95
2022-12-19T20:48:01.706Z,33.10
2022-12-19T20:50:39.723Z,36.75
2022-12-19T20:53:16.971Z,36.28
2022-12-19T20:56:08.813Z,30.40
2022-12-19T20:58:46.491Z,33.90
2022-12-19T21:01:21.669Z,32.08
2022-12-19T21:04:08.117Z,34.30
2022-12-19T21:06:41.605Z,33.80
2022-12-19T21:09:13.253Z,33.83
2022-12-19T21:11:52.764Z,28.65
2022-12-19T21:14:29.585Z,28.42
2022-12-19T21:17:08.724Z,24.85
2022-12-19T21:19:48.386Z,27.05
2022-12-19T21:22:47.525Z,27.77
2022-12-19T21:28:01.244Z,29.58
2022-12-19T21:30:40.361Z,27.63
2022-12-19T21:33:23.219Z,25.45
2022-12-19T21:36:19.246Z,26.45
2022-12-19T21:38:56.300Z,30.08
2022-12-19T21:41:29.358Z,27.13
2022-12-19T21:44:06.990Z,26.30
2022-12-19T21:46:50.196Z,24.73
2022-12-19T21:49:27.379Z,31.48
2022-12-19T21:52:10.588Z,29.48
2022-12-19T21:54:45.622Z,29.63
2022-12-19T21:57:23.686Z,27.17
2022-12-19T21:59:59.592Z,25.85
2022-12-19T22:02:33.585Z,27.55
2022-12-19T22:05:07.134Z,33.08
2022-12-19T22:07:39.261Z,32.65
2022-12-19T22:10:30.139Z,26.88
2022-12-19T22:13:04.882Z,25.63
2022-12-19T22:15:48.352Z,24.15
2022-12-19T22:18:26.798Z,26.25
2022-12-19T22:21:06.665Z,25.88
2022-12-19T22:23:39.545Z,27.05
2022-12-19T22:26:16.044Z,24.33
2022-12-19T22:28:49.951Z,26.05
2022-12-19T22:31:29.349Z,25.48
2022-12-19T22:34:42.897Z,25.25
2022-12-19T22:37:19.270Z,26.33
2022-12-19T22:39:56.343Z,26.20
2022-12-19T22:42:31.574Z,25.42
2022-12-19T22:45:06.577Z,24.63
2022-12-19T22:47:46.847Z,23.55
2022-12-19T22:50:19.965Z,22.40
2022-12-19T22:52:56.875Z,24.98
2022-12-19T22:55:36.943Z,24.23
2022-12-19T22:58:11.430Z,24.70
2022-12-19T23:00:50.928Z,24.35
2022-12-19T23:05:58.812Z,26.42
2022-12-19T23:08:34.827Z,26.48
2022-12-19T23:11:09.869Z,25.83
2022-12-19T23:13:43.982Z,27.27
2022-12-19T23:16:18.221Z,27.50
2022-12-19T23:18:58.366Z,26.25
2022-12-19T23:21:47.089Z,29.35
2022-12-19T23:24:21.795Z,26.92
2022-12-19T23:26:56.922Z,27.95
2022-12-19T23:29:30.388Z,26.00
2022-12-19T23:32:12.829Z,26.80
2022-12-19T23:34:49.071Z,26.33
2022-12-19T23:37:25.944Z,29.38
2022-12-19T23:39:57.817Z,27.65
2022-12-19T23:42:35.385Z,30.38
2022-12-19T23:45:13.336Z,27.30
2022-12-19T23:47:46.996Z,31.52
2022-12-19T23:50:28.412Z,29.38
2022-12-19T23:53:03.677Z,27.80
2022-12-19T23:55:43.410Z,26.45
2022-12-19T23:58:24.018Z,27.58
